createdAt,value
2022-12-03T00:01:15.859Z,101094.99
2022-12-03T00:03:44.866Z,101094.70
2022-12-03T00:06:15.256Z,101090.44
2022-12-03T00:08:44.476Z,101090.44
2022-12-03T00:11:13.136Z,101091.40
2022-12-03T00:13:41.936Z,101089.75
2022-12-03T00:16:10.617Z,101088.38
2022-12-03T00:18:39.295Z,101087.08
2022-12-03T00:21:08.395Z,101089.52
2022-12-03T00:23:42.025Z,101090.35
2022-12-03T00:26:11.289Z,101091.17
2022-12-03T00:28:40.079Z,101090.58
2022-12-03T00:31:09.045Z,101089.52
2022-12-03T00:33:37.758Z,101083.35
2022-12-03T00:36:07.277Z,101081.58
2022-12-03T00:38:35.855Z,101081.12
2022-12-03T00:41:04.722Z,101079.74
2022-12-03T00:43:33.515Z,101077.86
2022-12-03T00:46:02.034Z,101079.31
2022-12-03T00:48:30.795Z,101075.86
2022-12-03T00:50:59.575Z,101074.08
2022-12-03T00:53:28.579Z,101073.36
2022-12-03T00:55:57.443Z,101074.36
2022-12-03T00:58:26.257Z,101074.55
2022-12-03T01:00:54.936Z,101070.87
2022-12-03T01:03:23.616Z,101071.52
2022-12-03T01:05:52.296Z,101070.38
2022-12-03T01:08:21.096Z,101073.67
2022-12-03T01:10:50.498Z,101074.20
2022-12-03T01:13:19.195Z,101079.17
2022-12-03T01:15:49.135Z,101081.11
2022-12-03T01:18:17.773Z,101080.02
2022-12-03T01:20:46.358Z,101077.69
2022-12-03T01:23:14.930Z,101077.19
2022-12-03T01:25:43.636Z,101072.05
2022-12-03T01:28:12.315Z,101072.66
2022-12-03T01:31:01.021Z,101070.79
2022-12-03T01:33:30.675Z,101070.36
2022-12-03T01:35:59.277Z,101071.70
2022-12-03T01:38:28.039Z,101070.59
2022-12-03T01:40:56.833Z,101070.67
2022-12-03T01:43:25.416Z,101070.67
2022-12-03T01:45:54.116Z,101068.60
2022-12-03T01:48:23.097Z,101069.01
2022-12-03T01:50:51.576Z,101065.96
2022-12-03T01:53:20.376Z,101064.70
2022-12-03T01:55:49.575Z,101065.04
2022-12-03T01:58:21.054Z,101066.48
2022-12-03T02:00:49.497Z,101060.23
2022-12-03T02:03:24.975Z,101057.20
2022-12-03T02:05:53.860Z,101060.23
2022-12-03T02:08:30.411Z,101058.20
2022-12-03T02:11:05.279Z,101051.77
2022-12-03T02:13:34.106Z,101057.59
2022-12-03T02:16:03.724Z,101056.41
2022-12-03T02:18:32.195Z,101057.38
2022-12-03T02:21:32.335Z,101059.84
2022-12-03T02:24:16.701Z,101059.09
2022-12-03T02:26:45.277Z,101056.70
2022-12-03T02:29:14.258Z,101053.13
2022-12-03T02:31:43.831Z,101062.06
2022-12-03T02:34:45.535Z,101059.70
2022-12-03T02:37:18.422Z,101058.02
2022-12-03T02:39:52.105Z,101058.79
2022-12-03T02:42:36.353Z,101058.30
2022-12-03T02:45:19.383Z,101053.99
2022-12-03T02:47:53.153Z,101054.52
2022-12-03T02:50:26.016Z,101055.41
2022-12-03T02:52:56.397Z,101054.28
2022-12-03T02:55:25.168Z,101058.53
2022-12-03T02:57:53.862Z,101052.18
2022-12-03T03:00:23.814Z,101054.05
2022-12-03T03:02:52.483Z,101051.77
2022-12-03T03:05:23.066Z,101048.86
2022-12-03T03:07:52.826Z,101048.80
2022-12-03T03:10:23.769Z,101043.16
2022-12-03T03:12:53.963Z,101046.88
2022-12-03T03:15:23.664Z,101049.05
2022-12-03T03:17:52.765Z,101043.91
2022-12-03T03:20:21.464Z,101043.85
2022-12-03T03:22:50.185Z,101043.54
2022-12-03T03:25:21.702Z,101038.68
2022-12-03T03:27:50.167Z,101032.92
2022-12-03T03:30:19.066Z,101032.03
2022-12-03T03:32:47.846Z,101031.73
2022-12-03T03:35:18.263Z,101031.24
2022-12-03T03:37:47.165Z,101033.17
2022-12-03T03:40:15.750Z,101035.13
2022-12-03T03:42:44.546Z,101030.32
2022-12-03T03:45:13.634Z,101027.92
2022-12-03T03:47:44.146Z,101025.50
2022-12-03T03:50:13.217Z,101016.38
2022-12-03T03:52:42.036Z,101016.30
2022-12-03T03:55:11.645Z,101012.90
2022-12-03T03:57:40.321Z,101012.34
2022-12-03T04:00:09.723Z,101015.73
2022-12-03T04:02:38.305Z,101013.59
2022-12-03T04:05:08.298Z,101010.03
2022-12-03T04:07:36.786Z,101012.06
2022-12-03T04:10:26.387Z,101014.95
2022-12-03T04:12:55.989Z,101013.52
2022-12-03T04:15:25.903Z,101012.33
2022-12-03T04:18:14.666Z,101009.33
2022-12-03T04:20:43.647Z,101013.17
2022-12-03T04:23:12.145Z,101012.48
2022-12-03T04:26:00.485Z,101015.96
2022-12-03T04:28:47.804Z,101014.36
2022-12-03T04:31:35.018Z,101012.92
2022-12-03T04:34:22.521Z,101011.61
2022-12-03T04:36:51.130Z,101009.31
2022-12-03T04:39:20.448Z,101009.67
2022-12-03T04:41:49.124Z,101009.96
2022-12-03T04:44:36.496Z,101009.96
2022-12-03T04:47:12.504Z,101011.44
2022-12-03T04:49:43.344Z,101013.64
2022-12-03T04:52:13.472Z,101015.52
2022-12-03T04:54:42.444Z,101015.00
2022-12-03T04:57:12.371Z,101018.05
2022-12-03T04:59:41.264Z,101015.73
2022-12-03T05:02:09.958Z,101017.45
2022-12-03T05:04:39.151Z,101016.94
2022-12-03T05:07:07.705Z,101012.74
2022-12-03T05:09:36.603Z,101015.95
2022-12-03T05:12:05.685Z,101011.94
2022-12-03T05:14:34.196Z,101006.38
2022-12-03T05:17:02.975Z,101004.31
2022-12-03T05:19:50.794Z,101004.84
2022-12-03T05:22:19.286Z,101002.30
2022-12-03T05:24:47.965Z,101005.64
2022-12-03T05:27:23.419Z,101006.50
2022-12-03T05:29:53.451Z,101007.97
2022-12-03T05:32:22.015Z,101009.22
2022-12-03T05:34:51.121Z,101008.23
2022-12-03T05:37:19.908Z,100999.73
2022-12-03T05:39:48.790Z,101001.14
2022-12-03T05:42:49.832Z,101001.50
2022-12-03T05:45:19.129Z,101004.45
2022-12-03T05:47:48.850Z,101004.36
2022-12-03T05:50:18.301Z,101001.67
2022-12-03T05:52:46.833Z,101002.42
2022-12-03T05:55:17.142Z,100997.02
2022-12-03T05:57:45.928Z,100996.41
2022-12-03T06:00:17.523Z,100998.95
2022-12-03T06:02:46.393Z,100998.22
2022-12-03T06:05:17.321Z,100999.59
2022-12-03T06:07:46.862Z,101004.33
2022-12-03T06:10:20.516Z,101003.42
2022-12-03T06:12:48.999Z,101004.97
2022-12-03T06:15:18.510Z,101005.85
2022-12-03T06:17:47.214Z,101004.65
2022-12-03T06:20:19.460Z,101007.29
2022-12-03T06:22:48.577Z,101004.86
2022-12-03T06:25:17.549Z,101008.68
2022-12-03T06:27:46.135Z,101014.09
2022-12-03T06:30:15.435Z,101013.66
2022-12-03T06:32:43.915Z,101013.99
2022-12-03T06:35:13.216Z,101010.27
2022-12-03T06:37:42.636Z,101011.84
2022-12-03T06:40:12.088Z,101009.66
2022-12-03T06:42:40.514Z,101005.35
2022-12-03T06:45:10.118Z,101005.86
2022-12-03T06:47:38.992Z,101003.46
2022-12-03T06:50:08.932Z,101006.14
2022-12-03T06:52:37.615Z,101009.42
2022-12-03T06:55:07.345Z,101007.16
2022-12-03T06:57:35.986Z,101007.56
2022-12-03T07:00:06.377Z,101005.61
2022-12-03T07:02:35.576Z,101004.95
2022-12-03T07:05:05.336Z,101002.71
2022-12-03T07:07:33.971Z,101004.60
2022-12-03T07:10:02.816Z,101004.08
2022-12-03T07:12:33.226Z,101004.16
2022-12-03T07:15:01.901Z,101003.52
2022-12-03T07:17:31.098Z,101004.23
2022-12-03T07:19:59.699Z,101003.96
2022-12-03T07:22:28.277Z,101002.88
2022-12-03T07:24:57.056Z,101000.20
2022-12-03T07:27:26.155Z,100998.39
2022-12-03T07:29:54.751Z,100993.70
2022-12-03T07:32:23.722Z,100995.23
2022-12-03T07:34:52.675Z,100992.27
2022-12-03T07:37:23.273Z,100992.51
2022-12-03T07:39:52.969Z,100998.91
2022-12-03T07:42:21.536Z,100999.08
2022-12-03T07:44:50.147Z,100992.84
2022-12-03T07:47:18.909Z,100994.42
2022-12-03T07:49:47.595Z,100991.83
2022-12-03T07:52:17.216Z,100996.40
2022-12-03T07:54:46.095Z,100999.27
2022-12-03T07:57:14.998Z,100994.64
2022-12-03T07:59:43.875Z,100996.95
2022-12-03T08:02:15.672Z,100994.22
2022-12-03T08:04:48.519Z,100993.40
2022-12-03T08:07:17.115Z,100990.88
2022-12-03T08:09:45.909Z,100989.77
2022-12-03T08:12:18.976Z,100983.14
2022-12-03T08:14:47.552Z,100986.89
2022-12-03T08:17:18.296Z,100987.35
2022-12-03T08:19:47.800Z,100988.47
2022-12-03T08:22:17.099Z,100984.67
2022-12-03T08:24:45.795Z,100987.55
2022-12-03T08:27:18.978Z,100982.41
2022-12-03T08:29:47.455Z,100976.79
2022-12-03T08:32:16.127Z,100968.30
2022-12-03T08:34:46.225Z,100960.52
2022-12-03T08:37:18.765Z,100956.17
2022-12-03T08:39:49.233Z,100961.42
2022-12-03T08:42:42.311Z,100961.73
2022-12-03T08:45:30.820Z,100962.65
2022-12-03T08:48:05.291Z,100960.12
2022-12-03T08:50:39.058Z,100957.70
2022-12-03T08:53:14.441Z,100958.42
2022-12-03T08:55:47.885Z,100964.94
2022-12-03T08:58:25.477Z,100963.10
2022-12-03T09:01:36.232Z,100964.83
2022-12-03T09:04:29.027Z,100972.45
2022-12-03T09:06:58.562Z,100970.05
2022-12-03T09:09:27.745Z,100973.55
2022-12-03T09:11:57.059Z,100975.65
2022-12-03T09:14:25.540Z,100976.84
2022-12-03T09:16:56.192Z,100976.09
2022-12-03T09:19:27.329Z,100973.66
2022-12-03T09:21:56.514Z,100967.80
2022-12-03T09:24:25.499Z,100965.95
2022-12-03T09:26:54.695Z,100967.55
2022-12-03T09:29:23.480Z,100971.86
2022-12-03T09:31:52.219Z,100967.77
2022-12-03T09:34:21.049Z,100971.72
2022-12-03T09:36:49.740Z,100970.79
2022-12-03T09:39:18.113Z,100969.63
2022-12-03T09:41:46.912Z,100966.88
2022-12-03T09:44:17.911Z,100972.14
2022-12-03T09:46:48.114Z,100973.75
2022-12-03T09:49:18.512Z,100972.63
2022-12-03T09:51:47.287Z,100970.80
2022-12-03T09:54:26.454Z,100965.87
2022-12-03T09:56:56.846Z,100965.51
2022-12-03T09:59:28.517Z,100969.46
2022-12-03T10:01:57.594Z,100963.74
2022-12-03T10:04:28.677Z,100964.06
2022-12-03T10:06:58.446Z,100961.84
2022-12-03T10:09:28.879Z,100955.20
2022-12-03T10:11:59.703Z,100960.64
2022-12-03T10:14:28.953Z,100960.67
2022-12-03T10:16:58.776Z,100956.33
2022-12-03T10:19:30.592Z,100955.05
2022-12-03T10:21:59.355Z,100957.13
2022-12-03T10:24:31.696Z,100954.70
2022-12-03T10:27:06.238Z,100956.65
2022-12-03T10:29:37.147Z,100952.91
2022-12-03T10:32:08.481Z,100951.24
2022-12-03T10:34:39.440Z,100950.20
2022-12-03T10:37:12.872Z,100946.89
2022-12-03T10:40:02.884Z,100943.86
2022-12-03T10:42:34.631Z,100936.83
2022-12-03T10:45:23.443Z,100938.53
2022-12-03T10:48:14.780Z,100932.77
2022-12-03T10:50:53.744Z,100932.45
2022-12-03T10:53:28.259Z,100922.71
2022-12-03T10:56:00.030Z,100916.48
2022-12-03T10:58:30.864Z,100915.59
2022-12-03T11:01:01.437Z,100908.81
2022-12-03T11:03:35.074Z,100908.33
2022-12-03T11:06:03.852Z,100905.61
2022-12-03T11:08:37.150Z,100912.84
2022-12-03T11:11:13.433Z,100918.31
2022-12-03T11:13:42.101Z,100912.84
2022-12-03T11:16:12.058Z,100910.89
2022-12-03T11:18:40.701Z,100909.88
2022-12-03T11:21:12.404Z,100902.73
2022-12-03T11:23:47.603Z,100903.40
2022-12-03T11:26:37.485Z,100901.92
2022-12-03T11:29:14.446Z,100897.95
2022-12-03T11:31:45.772Z,100892.23
2022-12-03T11:34:23.799Z,100890.55
2022-12-03T11:37:10.707Z,100894.11
2022-12-03T11:39:48.247Z,100888.56
2022-12-03T11:42:27.027Z,100889.05
2022-12-03T11:45:06.148Z,100886.77
2022-12-03T11:47:43.596Z,100886.75
2022-12-03T11:50:39.311Z,100882.23
2022-12-03T11:53:24.345Z,100887.97
2022-12-03T11:56:06.759Z,100886.26
2022-12-03T11:58:38.639Z,100885.94
2022-12-03T12:01:08.311Z,100882.38
2022-12-03T12:03:48.417Z,100887.36
2022-12-03T12:06:18.497Z,100885.26
2022-12-03T12:08:49.819Z,100886.36
2022-12-03T12:11:18.425Z,100886.28
2022-12-03T12:13:56.065Z,100881.91
2022-12-03T12:16:51.245Z,100883.14
2022-12-03T12:19:31.189Z,100879.69
2022-12-03T12:22:32.830Z,100872.29
2022-12-03T12:25:03.753Z,100870.48
2022-12-03T12:27:35.455Z,100866.59
2022-12-03T12:30:18.999Z,100861.21
2022-12-03T12:33:06.386Z,100858.27
2022-12-03T12:35:37.277Z,100856.13
2022-12-03T12:38:11.466Z,100862.64
2022-12-03T12:40:42.874Z,100864.06
2022-12-03T12:43:14.403Z,100859.95
2022-12-03T12:45:47.412Z,100861.54
2022-12-03T12:48:35.027Z,100859.19
2022-12-03T12:51:10.529Z,100862.00
2022-12-03T12:53:40.804Z,100861.09
2022-12-03T12:56:36.639Z,100859.66
2022-12-03T12:59:13.168Z,100861.95
2022-12-03T13:01:44.425Z,100860.77
2022-12-03T13:04:18.837Z,100855.13
2022-12-03T13:06:48.456Z,100857.98
2022-12-03T13:09:19.517Z,100861.73
2022-12-03T13:11:56.605Z,100862.15
2022-12-03T13:14:29.585Z,100860.77
2022-12-03T13:17:00.369Z,100857.52
2022-12-03T13:19:31.669Z,100853.48
2022-12-03T13:22:13.529Z,100858.64
2022-12-03T13:24:48.055Z,100857.58
2022-12-03T13:27:26.306Z,100854.58
2022-12-03T13:29:59.883Z,100851.30
2022-12-03T13:32:32.000Z,100847.18
2022-12-03T13:35:04.636Z,100846.75
2022-12-03T13:37:33.520Z,100854.30
2022-12-03T13:40:28.526Z,100853.53
2022-12-03T13:42:58.392Z,100854.27
2022-12-03T13:45:37.918Z,100856.00
2022-12-03T13:48:23.878Z,100854.54
2022-12-03T13:50:53.386Z,100854.83
2022-12-03T13:53:33.419Z,100853.98
2022-12-03T13:56:29.368Z,100848.45
2022-12-03T13:59:00.500Z,100851.30
2022-12-03T14:01:29.740Z,100843.50
2022-12-03T14:03:58.810Z,100843.46
2022-12-03T14:06:28.191Z,100844.45
2022-12-03T14:08:57.252Z,100844.83
2022-12-03T14:11:44.713Z,100844.21
2022-12-03T14:14:13.698Z,100838.77
2022-12-03T14:16:43.589Z,100842.35
2022-12-03T14:19:14.567Z,100839.35
2022-12-03T14:21:43.140Z,100840.65
2022-12-03T14:24:12.025Z,100835.56
2022-12-03T14:26:40.910Z,100835.69
2022-12-03T14:29:09.900Z,100834.33
2022-12-03T14:31:39.186Z,100839.88
2022-12-03T14:34:07.896Z,100841.91
2022-12-03T14:36:36.898Z,100832.58
2022-12-03T14:39:05.618Z,100828.51
2022-12-03T14:41:53.416Z,100826.71
2022-12-03T14:44:25.773Z,100827.84
2022-12-03T14:46:57.292Z,100829.17
2022-12-03T14:49:26.421Z,100829.70
2022-12-03T14:51:55.216Z,100832.70
2022-12-03T14:54:24.516Z,100834.54
2022-12-03T14:56:54.436Z,100838.92
2022-12-03T14:59:27.726Z,100839.98
2022-12-03T15:01:57.345Z,100844.48
2022-12-03T15:04:26.421Z,100845.33
2022-12-03T15:06:55.309Z,100842.08
2022-12-03T15:09:24.832Z,100843.46
2022-12-03T15:11:53.403Z,100843.27
2022-12-03T15:14:24.129Z,100845.34
2022-12-03T15:16:53.031Z,100845.30
2022-12-03T15:19:21.844Z,100850.23
2022-12-03T15:21:51.044Z,100849.55
2022-12-03T15:24:19.931Z,100850.11
2022-12-03T15:26:49.821Z,100852.56
2022-12-03T15:29:19.022Z,100854.61
2022-12-03T15:31:49.937Z,100858.93
2022-12-03T15:34:22.382Z,100861.05
2022-12-03T15:36:53.659Z,100863.24
2022-12-03T15:39:22.582Z,100858.13
2022-12-03T15:41:51.262Z,100853.45
2022-12-03T15:44:20.787Z,100849.63
2022-12-03T15:46:49.743Z,100850.36
2022-12-03T15:49:19.718Z,100845.94
2022-12-03T15:51:48.962Z,100843.73
2022-12-03T15:54:18.473Z,100846.21
2022-12-03T15:56:47.821Z,100844.60
2022-12-03T15:59:18.302Z,100844.23
2022-12-03T16:01:47.072Z,100841.68
2022-12-03T16:04:17.777Z,100841.44
2022-12-03T16:06:46.502Z,100843.50
2022-12-03T16:09:21.098Z,100843.41
2022-12-03T16:11:52.903Z,100838.55
2022-12-03T16:14:23.122Z,100841.15
2022-12-03T16:16:53.022Z,100839.16
2022-12-03T16:19:22.526Z,100837.14
2022-12-03T16:21:51.223Z,100840.06
2022-12-03T16:24:22.025Z,100837.38
2022-12-03T16:26:52.712Z,100834.98
2022-12-03T16:29:21.654Z,100831.37
2022-12-03T16:31:53.619Z,100831.89
2022-12-03T16:34:22.416Z,100821.69
2022-12-03T16:36:52.016Z,100824.61
2022-12-03T16:39:21.019Z,100825.10
2022-12-03T16:41:51.137Z,100828.11
2022-12-03T16:44:31.795Z,100830.02
2022-12-03T16:47:02.626Z,100827.34
2022-12-03T16:49:31.637Z,100823.08
2022-12-03T16:52:02.651Z,100823.52
2022-12-03T16:54:31.456Z,100823.75
2022-12-03T16:57:00.256Z,100821.89
2022-12-03T16:59:29.437Z,100825.18
2022-12-03T17:01:59.010Z,100828.63
2022-12-03T17:04:29.365Z,100829.98
2022-12-03T17:06:58.050Z,100828.15
2022-12-03T17:09:28.175Z,100825.11
2022-12-03T17:11:57.894Z,100820.33
2022-12-03T17:14:33.206Z,100817.56
2022-12-03T17:17:02.218Z,100815.77
2022-12-03T17:19:31.018Z,100816.83
2022-12-03T17:22:00.321Z,100815.11
2022-12-03T17:24:28.984Z,100809.83
2022-12-03T17:26:58.597Z,100808.81
2022-12-03T17:29:28.616Z,100803.25
2022-12-03T17:31:58.085Z,100797.58
2022-12-03T17:34:27.338Z,100798.17
2022-12-03T17:36:56.515Z,100794.42
2022-12-03T17:39:26.535Z,100796.98
2022-12-03T17:41:57.681Z,100798.57
2022-12-03T17:44:26.477Z,100799.59
2022-12-03T17:46:56.679Z,100802.11
2022-12-03T17:49:31.164Z,100797.66
2022-12-03T17:52:00.316Z,100798.71
2022-12-03T17:54:49.073Z,100795.63
2022-12-03T17:57:18.976Z,100792.27
2022-12-03T17:59:48.346Z,100797.39
2022-12-03T18:02:18.125Z,100793.27
2022-12-03T18:04:46.966Z,100790.30
2022-12-03T18:07:15.655Z,100794.23
2022-12-03T18:09:44.336Z,100793.11
2022-12-03T18:12:13.766Z,100791.56
2022-12-03T18:14:42.427Z,100795.52
2022-12-03T18:17:12.440Z,100796.89
2022-12-03T18:19:42.468Z,100797.44
2022-12-03T18:22:12.372Z,100788.75
2022-12-03T18:24:43.318Z,100788.58
2022-12-03T18:27:15.788Z,100794.15
2022-12-03T18:29:45.033Z,100793.50
2022-12-03T18:32:27.640Z,100791.76
2022-12-03T18:35:00.085Z,100788.30
2022-12-03T18:37:30.197Z,100786.07
2022-12-03T18:40:00.243Z,100787.95
2022-12-03T18:42:30.855Z,100784.94
2022-12-03T18:45:00.555Z,100785.02
2022-12-03T18:47:32.476Z,100789.83
2022-12-03T18:50:02.426Z,100789.80
2022-12-03T18:52:32.960Z,100790.73
2022-12-03T18:55:03.615Z,100790.29
2022-12-03T18:57:36.896Z,100791.65
2022-12-03T19:00:13.704Z,100791.61
2022-12-03T19:05:35.916Z,100789.59
2022-12-03T19:08:15.436Z,100780.73
2022-12-03T19:10:45.876Z,100779.39
2022-12-03T19:13:16.936Z,100774.14
2022-12-03T19:15:51.563Z,100776.30
2022-12-03T19:18:22.571Z,100777.15
2022-12-03T19:20:52.396Z,100783.45
2022-12-03T19:23:22.888Z,100781.30
2022-12-03T19:26:00.141Z,100781.86
2022-12-03T19:28:31.250Z,100780.88
2022-12-03T19:31:20.588Z,100781.64
2022-12-03T19:33:51.625Z,100784.73
2022-12-03T19:36:26.603Z,100782.25
2022-12-03T19:38:59.857Z,100785.59
2022-12-03T19:41:33.409Z,100786.08
2022-12-03T19:44:10.593Z,100788.19
2022-12-03T19:46:42.759Z,100788.95
2022-12-03T19:49:13.512Z,100796.98
2022-12-03T19:51:45.954Z,100798.48
2022-12-03T19:54:22.316Z,100794.44
2022-12-03T19:56:52.902Z,100797.48
2022-12-03T19:59:24.378Z,100796.75
2022-12-03T20:01:53.640Z,100792.54
2022-12-03T20:04:23.956Z,100794.98
2022-12-03T20:06:53.416Z,100792.62
2022-12-03T20:09:23.831Z,100789.58
2022-12-03T20:11:54.258Z,100790.06
2022-12-03T20:14:24.330Z,100794.86
2022-12-03T20:16:53.921Z,100800.95
2022-12-03T20:19:25.910Z,100804.93
2022-12-03T20:22:02.143Z,100807.73
2022-12-03T20:24:33.877Z,100802.05
2022-12-03T20:27:04.124Z,100807.05
2022-12-03T20:29:34.023Z,100801.11
2022-12-03T20:32:06.051Z,100800.62
2022-12-03T20:34:39.114Z,100804.14
2022-12-03T20:37:09.516Z,100800.20
2022-12-03T20:39:39.315Z,100793.59
2022-12-03T20:42:12.795Z,100784.75
2022-12-03T20:44:43.348Z,100778.61
2022-12-03T20:47:13.996Z,100774.49
2022-12-03T20:49:48.341Z,100772.28
2022-12-03T20:52:18.396Z,100759.85
2022-12-03T20:54:47.697Z,100763.92
2022-12-03T20:57:16.999Z,100765.33
2022-12-03T20:59:47.115Z,100769.80
2022-12-03T21:02:18.134Z,100768.89
2022-12-03T21:04:48.158Z,100769.74
2022-12-03T21:07:19.641Z,100765.13
2022-12-03T21:09:49.522Z,100767.45
2022-12-03T21:12:20.278Z,100774.23
2022-12-03T21:14:50.997Z,100776.48
2022-12-03T21:17:20.558Z,100775.45
2022-12-03T21:19:50.115Z,100778.79
2022-12-03T21:22:20.236Z,100776.80
2022-12-03T21:27:35.736Z,100769.11
2022-12-03T21:30:06.388Z,100767.87
2022-12-03T21:32:36.163Z,100768.00
2022-12-03T21:35:05.377Z,100772.39
2022-12-03T21:37:35.350Z,100777.31
2022-12-03T21:40:05.289Z,100782.06
2022-12-03T21:42:37.392Z,100781.58
2022-12-03T21:45:07.074Z,100776.02
2022-12-03T21:47:37.444Z,100782.96
2022-12-03T21:50:11.505Z,100777.51
2022-12-03T21:52:41.606Z,100776.05
2022-12-03T21:55:12.065Z,100775.89
2022-12-03T21:57:41.353Z,100768.41
2022-12-03T22:00:12.161Z,100773.36
2022-12-03T22:02:41.251Z,100772.67
2022-12-03T22:05:11.302Z,100772.52
2022-12-03T22:07:41.425Z,100770.92
2022-12-03T22:10:11.678Z,100776.65
2022-12-03T22:12:42.275Z,100778.73
2022-12-03T22:15:16.728Z,100776.60
2022-12-03T22:17:48.237Z,100775.86
2022-12-03T22:20:17.037Z,100772.83
2022-12-03T22:22:45.709Z,100768.61
2022-12-03T22:25:16.375Z,100765.81
2022-12-03T22:27:44.935Z,100760.95
2022-12-03T22:30:14.315Z,100756.92
2022-12-03T22:32:43.136Z,100751.73
2022-12-03T22:35:12.720Z,100752.86
2022-12-03T22:37:41.305Z,100751.63
2022-12-03T22:40:10.916Z,100750.70
2022-12-03T22:42:39.618Z,100744.41
2022-12-03T22:45:08.996Z,100746.39
2022-12-03T22:47:37.896Z,100743.34
2022-12-03T22:50:07.693Z,100740.35
2022-12-03T22:52:36.495Z,100739.22
2022-12-03T22:55:07.207Z,100736.93
2022-12-03T22:57:35.794Z,100736.86
2022-12-03T23:00:10.199Z,100741.32
2022-12-03T23:02:39.059Z,100736.90
2022-12-03T23:05:08.172Z,100739.34
2022-12-03T23:07:36.865Z,100738.48
2022-12-03T23:10:06.998Z,100733.28
2022-12-03T23:12:35.636Z,100731.70
2022-12-03T23:15:05.147Z,100730.81
2022-12-03T23:17:34.194Z,100729.63
2022-12-03T23:20:04.436Z,100726.92
2022-12-03T23:22:33.219Z,100725.70
2022-12-03T23:25:02.117Z,100726.08
2022-12-03T23:27:30.800Z,100727.77
2022-12-03T23:30:00.081Z,100728.18
2022-12-03T23:32:28.565Z,100724.21
2022-12-03T23:34:57.275Z,100724.45
2022-12-03T23:37:26.249Z,100719.41
2022-12-03T23:39:56.312Z,100711.69
2022-12-03T23:42:25.567Z,100700.58
2022-12-03T23:44:54.457Z,100686.64
2022-12-03T23:47:23.131Z,100687.04
2022-12-03T23:49:52.145Z,100685.21
2022-12-03T23:52:21.236Z,100683.35
2022-12-03T23:54:51.037Z,100689.48
2022-12-03T23:57:19.735Z,100697.35
2022-12-03T23:59:48.515Z,100696.29
